Time;durP1;ratioP1;P1;durP2;ratioP2;P2;SDS_P1;SDS_P2;PMS_P1;PMS_P2;Temp;Humidity;BMP_temperature;BMP_pressure;BME280_temperature;BME280_humidity;BME280_pressure;Samples;Min_cycle;Max_cycle;Signal;HPM_P1;HPM_P2
2022/07/04 00:01:02;;;;;;;5.13;3.53;;;16.00;99.90;;;;;;4957519;29;20575;-48
2022/07/04 00:03:30;;;;;;;5.63;3.33;;;16.00;99.90;;;;;;4956991;29;20235;-48
2022/07/04 00:05:58;;;;;;;3.33;3.03;;;16.00;99.90;;;;;;4957757;29;20283;-48
2022/07/04 00:08:26;;;;;;;5.70;4.10;;;16.00;99.90;;;;;;4957429;29;20257;-48
2022/07/04 00:10:55;;;;;;;7.97;4.20;;;15.90;99.90;;;;;;4957575;29;20595;-49
2022/07/04 00:13:23;;;;;;;4.60;3.63;;;15.80;99.90;;;;;;4957248;29;20227;-50
2022/07/04 00:15:51;;;;;;;4.93;3.60;;;15.80;99.90;;;;;;4957879;29;20239;-48
2022/07/04 00:18:20;;;;;;;5.83;3.77;;;15.80;99.90;;;;;;4957616;29;20227;-47
2022/07/04 00:20:49;;;;;;;6.30;3.67;;;15.80;99.90;;;;;;4957160;29;20232;-48
2022/07/04 00:23:17;;;;;;;7.77;3.83;;;15.70;99.90;;;;;;4951338;29;20212;-48
2022/07/04 00:25:45;;;;;;;5.40;3.80;;;15.70;99.90;;;;;;4946138;29;20235;-47
2022/07/04 00:28:13;;;;;;;5.13;3.30;;;15.70;99.90;;;;;;4957277;29;20242;-48
2022/07/04 00:30:41;;;;;;;6.33;4.00;;;15.70;99.90;;;;;;4956842;29;20707;-48
2022/07/04 00:33:13;;;;;;;4.53;3.43;;;15.70;99.90;;;;;;4957035;29;20237;-48
2022/07/04 00:35:42;;;;;;;5.27;3.83;;;15.70;99.90;;;;;;4957251;29;20284;-48
2022/07/04 00:38:10;;;;;;;7.93;4.23;;;15.70;99.90;;;;;;4956966;29;20247;-48
2022/07/04 00:40:39;;;;;;;5.37;3.87;;;15.80;99.90;;;;;;4957057;29;20735;-49
2022/07/04 00:43:07;;;;;;;4.43;4.00;;;15.80;99.90;;;;;;4956580;29;20251;-49
2022/07/04 00:45:35;;;;;;;4.97;4.10;;;15.80;99.90;;;;;;4956588;29;20246;-48
2022/07/04 00:48:03;;;;;;;6.07;4.40;;;15.80;99.90;;;;;;4956474;28;20238;-49
2022/07/04 00:50:32;;;;;;;4.50;3.77;;;15.70;99.90;;;;;;4953910;29;20747;-48
2022/07/04 00:53:02;;;;;;;5.20;3.97;;;15.70;99.90;;;;;;4956802;29;20227;-48
2022/07/04 00:55:30;;;;;;;5.57;3.90;;;15.70;99.90;;;;;;4948459;29;20251;-48
2022/07/04 00:57:58;;;;;;;5.70;4.53;;;15.70;99.90;;;;;;4942397;29;20238;-48
2022/07/04 01:00:27;;;;;;;6.50;4.17;;;15.70;99.90;;;;;;4937110;29;20232;-48
2022/07/04 01:02:55;;;;;;;7.13;4.40;;;15.70;99.90;;;;;;4937407;29;20224;-48
2022/07/04 01:05:23;;;;;;;4.60;4.20;;;15.60;99.90;;;;;;4941264;29;20228;-49
2022/07/04 01:07:51;;;;;;;5.33;4.70;;;15.60;99.90;;;;;;4927935;29;20231;-49
2022/07/04 01:10:20;;;;;;;7.47;4.30;;;15.60;99.90;;;;;;4937435;29;20279;-48
2022/07/04 01:12:49;;;;;;;8.10;4.93;;;15.60;99.90;;;;;;4952954;29;20227;-49
2022/07/04 01:15:17;;;;;;;7.50;4.63;;;15.60;99.90;;;;;;4956329;29;20237;-47
2022/07/04 01:17:45;;;;;;;6.20;4.70;;;15.60;99.90;;;;;;4955317;29;20237;-47
2022/07/04 01:20:15;;;;;;;7.03;5.30;;;15.60;99.90;;;;;;4956615;29;20755;-47
2022/07/04 01:22:43;;;;;;;8.63;5.60;;;15.60;99.90;;;;;;4956096;28;20306;-48
2022/07/04 01:25:13;;;;;;;6.40;5.27;;;15.60;99.90;;;;;;4948080;29;20235;-50
2022/07/04 01:27:42;;;;;;;7.83;6.20;;;15.60;99.90;;;;;;4944372;29;20324;-47
2022/07/04 01:30:11;;;;;;;10.70;6.80;;;15.70;99.90;;;;;;4936961;29;20227;-48
2022/07/04 01:32:39;;;;;;;9.63;7.57;;;15.60;99.90;;;;;;4936912;29;20246;-47
2022/07/04 01:35:10;;;;;;;12.17;8.07;;;15.70;99.90;;;;;;4937180;29;20714;-50
2022/07/04 01:37:39;;;;;;;10.30;9.17;;;15.80;99.90;;;;;;4936795;29;20699;-49
2022/07/04 01:40:08;;;;;;;11.63;10.40;;;15.70;99.90;;;;;;4936923;29;20599;-50
2022/07/04 01:42:37;;;;;;;13.90;10.70;;;15.70;99.90;;;;;;4950486;29;20722;-50
2022/07/04 01:45:06;;;;;;;12.67;10.27;;;15.80;99.90;;;;;;4955731;29;20240;-47
2022/07/04 01:47:34;;;;;;;11.97;10.77;;;15.80;99.90;;;;;;4951216;29;20704;-49
2022/07/04 01:50:03;;;;;;;11.57;9.97;;;15.80;99.90;;;;;;4951075;28;20235;-48
2022/07/04 01:52:31;;;;;;;12.73;11.47;;;15.80;99.90;;;;;;4947738;29;20230;-48
2022/07/04 01:55:01;;;;;;;15.97;11.40;;;15.80;99.90;;;;;;4949260;29;20696;-48
2022/07/04 01:57:29;;;;;;;13.77;12.27;;;15.80;99.90;;;;;;4944077;29;20260;-48
2022/07/04 02:02:43;;;;;;;12.80;11.50;;;15.70;99.90;;;;;;4936281;29;20240;-48
2022/07/04 02:05:11;;;;;;;14.20;11.50;;;15.70;99.90;;;;;;4936603;29;20228;-50
2022/07/04 02:07:39;;;;;;;12.27;11.07;;;15.70;99.90;;;;;;4936192;29;20228;-48
2022/07/04 02:10:09;;;;;;;12.47;11.27;;;15.60;99.90;;;;;;4936538;29;20587;-49
2022/07/04 02:15:23;;;;;;;12.20;10.93;;;15.50;99.90;;;;;;4948833;29;20232;-49
2022/07/04 02:17:52;;;;;;;11.20;10.20;;;15.50;99.90;;;;;;4936372;29;20233;-48
2022/07/04 02:20:20;;;;;;;10.63;9.53;;;15.50;99.90;;;;;;4936344;29;20651;-48
2022/07/04 02:22:48;;;;;;;10.77;9.50;;;15.40;99.90;;;;;;4936985;29;20223;-48
2022/07/04 02:25:18;;;;;;;10.23;9.13;;;15.40;99.90;;;;;;4948305;29;20231;-48
2022/07/04 02:27:46;;;;;;;11.20;8.80;;;15.40;99.90;;;;;;4948504;29;20239;-48
2022/07/04 02:30:14;;;;;;;10.23;8.20;;;15.40;99.90;;;;;;4954676;29;20262;-48
2022/07/04 02:32:43;;;;;;;10.37;8.80;;;15.40;99.90;;;;;;4954810;29;20219;-48
2022/07/04 02:35:11;;;;;;;9.17;8.27;;;15.30;99.90;;;;;;4955061;29;20227;-48
2022/07/04 02:37:40;;;;;;;11.20;8.60;;;15.30;99.90;;;;;;4954800;29;20271;-48
2022/07/04 02:40:09;;;;;;;9.33;7.33;;;15.20;99.90;;;;;;4955117;29;20238;-47
2022/07/04 02:42:39;;;;;;;10.63;7.30;;;15.20;99.90;;;;;;4943054;29;20295;-50
2022/07/04 02:45:08;;;;;;;10.90;7.63;;;15.20;99.90;;;;;;4935700;29;20577;-48
2022/07/04 02:47:36;;;;;;;7.73;6.93;;;15.20;99.90;;;;;;4927745;29;20231;-49
2022/07/04 02:50:05;;;;;;;9.27;6.80;;;15.20;99.90;;;;;;4934906;29;20224;-49
2022/07/04 02:52:33;;;;;;;10.83;6.80;;;15.10;99.90;;;;;;4933320;29;20228;-48
2022/07/04 02:55:01;;;;;;;8.40;6.90;;;15.10;99.90;;;;;;4924568;29;20224;-48
2022/07/04 02:57:30;;;;;;;10.57;6.83;;;15.10;99.90;;;;;;4924208;29;20228;-47
2022/07/04 02:59:59;;;;;;;7.80;6.40;;;15.00;99.90;;;;;;4916506;29;20329;-49
2022/07/04 03:02:27;;;;;;;10.83;6.53;;;15.10;99.90;;;;;;4918768;29;20232;-50
2022/07/04 03:04:55;;;;;;;7.73;6.07;;;15.10;99.90;;;;;;4932547;29;20322;-49
2022/07/04 03:07:23;;;;;;;7.60;5.97;;;15.10;99.90;;;;;;4935943;29;20231;-49
2022/07/04 03:09:52;;;;;;;7.87;5.90;;;15.00;99.90;;;;;;4937071;29;20227;-50
2022/07/04 03:12:20;;;;;;;6.10;5.40;;;15.00;99.90;;;;;;4941680;29;20238;-48
2022/07/04 03:14:48;;;;;;;7.57;5.70;;;15.00;99.90;;;;;;4941742;29;20561;-48
2022/07/04 03:17:18;;;;;;;7.10;5.17;;;15.00;99.90;;;;;;4941350;29;20275;-48
2022/07/04 03:19:46;;;;;;;6.63;5.70;;;15.00;99.90;;;;;;4941810;29;20275;-49
2022/07/04 03:22:14;;;;;;;6.73;5.20;;;14.90;99.90;;;;;;4941756;29;20234;-50
2022/07/04 03:24:43;;;;;;;7.60;5.40;;;15.00;99.90;;;;;;4941862;29;20231;-46
2022/07/04 03:27:11;;;;;;;6.27;5.67;;;14.90;99.90;;;;;;4941800;29;20602;-49
2022/07/04 03:29:39;;;;;;;6.70;5.30;;;14.90;99.90;;;;;;4941767;29;20664;-48
2022/07/04 03:32:09;;;;;;;8.10;5.10;;;14.90;99.90;;;;;;4941465;29;20242;-48
2022/07/04 03:34:38;;;;;;;7.63;4.90;;;15.00;99.90;;;;;;4941749;29;20236;-49
2022/07/04 03:37:06;;;;;;;8.17;5.43;;;15.00;99.90;;;;;;4941839;29;20244;-48
2022/07/04 03:39:34;;;;;;;7.27;5.40;;;15.00;99.90;;;;;;4941470;29;20235;-47
2022/07/04 03:42:03;;;;;;;5.57;4.67;;;15.00;99.90;;;;;;4935246;29;20235;-50
2022/07/04 03:44:31;;;;;;;6.67;4.73;;;15.10;99.90;;;;;;4959692;29;20231;-47
2022/07/04 03:46:59;;;;;;;6.70;4.77;;;15.10;99.90;;;;;;4960539;29;20234;-49
2022/07/04 03:49:27;;;;;;;6.70;4.93;;;15.10;99.90;;;;;;4960397;28;20321;-47
2022/07/04 03:51:57;;;;;;;6.60;4.13;;;15.20;99.90;;;;;;4960926;28;20234;-47
2022/07/04 03:54:28;;;;;;;4.70;4.27;;;15.20;99.90;;;;;;4960739;29;20250;-48
2022/07/04 03:56:56;;;;;;;6.37;4.50;;;15.30;99.90;;;;;;4960718;29;20696;-48
2022/07/04 03:59:24;;;;;;;5.00;4.50;;;15.30;99.90;;;;;;4960694;28;20242;-48
2022/07/04 04:01:52;;;;;;;6.27;4.30;;;15.40;99.90;;;;;;4960048;28;20442;-48
2022/07/04 04:07:17;;;;;;;4.43;3.90;;;15.50;99.90;;;;;;4927499;29;20359;-48
2022/07/04 04:09:45;;;;;;;5.37;4.27;;;15.50;99.90;;;;;;4949380;29;20692;-48
2022/07/04 04:12:13;;;;;;;4.07;3.67;;;15.70;99.90;;;;;;4953360;29;20231;-47
2022/07/04 04:14:41;;;;;;;6.60;3.90;;;15.70;99.90;;;;;;4941182;29;20234;-48
2022/07/04 04:17:09;;;;;;;4.60;3.43;;;15.80;99.90;;;;;;4941625;29;20719;-47
2022/07/04 04:19:38;;;;;;;5.00;3.60;;;15.80;99.90;;;;;;4941112;29;20215;-50
2022/07/04 04:22:06;;;;;;;8.13;3.27;;;15.80;99.90;;;;;;4938452;29;20235;-47
2022/07/04 04:24:35;;;;;;;5.97;3.47;;;15.80;99.90;;;;;;4938158;29;20217;-47
2022/07/04 04:27:04;;;;;;;6.97;3.30;;;15.90;99.90;;;;;;4947831;29;20788;-48
2022/07/04 04:29:32;;;;;;;4.80;3.17;;;16.00;99.90;;;;;;4956160;29;20227;-50
2022/07/04 04:32:01;;;;;;;4.17;3.07;;;16.00;99.90;;;;;;4956807;29;20737;-49
2022/07/04 04:34:29;;;;;;;3.97;2.70;;;16.10;99.90;;;;;;4951838;28;20219;-49
2022/07/04 04:36:57;;;;;;;3.17;2.83;;;16.20;99.90;;;;;;4937948;29;20239;-49
2022/07/04 04:39:25;;;;;;;3.63;2.80;;;16.30;99.90;;;;;;4938009;29;20231;-49
2022/07/04 04:41:54;;;;;;;4.10;2.97;;;16.40;99.90;;;;;;4945276;29;20236;-49
2022/07/04 04:44:22;;;;;;;4.23;2.90;;;16.50;99.90;;;;;;4941308;29;20230;-50
2022/07/04 04:46:51;;;;;;;5.20;3.20;;;16.50;99.90;;;;;;4947767;29;20224;-50
2022/07/04 04:49:19;;;;;;;7.10;3.13;;;16.60;99.90;;;;;;4948454;29;20230;-49
2022/07/04 04:51:47;;;;;;;4.50;3.07;;;16.60;99.90;;;;;;4944987;29;20267;-48
2022/07/04 04:54:15;;;;;;;6.83;3.50;;;16.80;99.90;;;;;;4947939;29;20321;-48
2022/07/04 04:56:43;;;;;;;4.37;2.73;;;16.80;99.90;;;;;;4946580;29;20218;-48
2022/07/04 04:59:13;;;;;;;4.50;3.00;;;16.90;99.90;;;;;;4947516;29;20252;-48
2022/07/04 05:01:41;;;;;;;5.43;3.17;;;17.00;99.90;;;;;;4944874;29;20244;-50
2022/07/04 05:04:10;;;;;;;3.77;2.90;;;17.20;99.90;;;;;;4951050;29;20711;-47
2022/07/04 05:06:39;;;;;;;4.30;2.80;;;17.30;99.90;;;;;;4944551;29;20224;-49
2022/07/04 05:09:07;;;;;;;3.67;2.50;;;17.40;99.90;;;;;;4949386;29;20239;-50
2022/07/04 05:11:35;;;;;;;2.83;2.53;;;17.60;99.90;;;;;;4945312;29;20219;-50
2022/07/04 05:14:03;;;;;;;5.67;2.83;;;17.70;99.90;;;;;;4949965;29;20331;-50
2022/07/04 05:16:33;;;;;;;5.07;2.30;;;17.90;99.90;;;;;;4945865;29;20597;-50
2022/07/04 05:19:01;;;;;;;5.90;3.00;;;18.00;99.90;;;;;;4948301;29;20723;-50
2022/07/04 05:21:30;;;;;;;4.40;2.30;;;18.10;99.90;;;;;;4948577;29;20231;-49
2022/07/04 05:23:59;;;;;;;6.60;2.63;;;18.30;99.90;;;;;;4952304;29;20286;-51
2022/07/04 05:26:27;;;;;;;6.00;2.70;;;18.40;99.90;;;;;;4944809;29;20221;-51
2022/07/04 05:28:57;;;;;;;6.90;3.00;;;18.50;99.90;;;;;;4948187;29;20302;-48
2022/07/04 05:31:25;;;;;;;4.27;2.60;;;18.50;99.90;;;;;;4946479;29;20316;-51
2022/07/04 05:33:55;;;;;;;6.13;2.60;;;18.70;99.90;;;;;;4952308;28;20298;-50
2022/07/04 05:36:24;;;;;;;2.97;2.33;;;18.80;99.90;;;;;;4939911;29;20225;-50
2022/07/04 05:38:57;;;;;;;4.33;2.17;;;19.00;99.90;;;;;;4947972;29;20257;-49
2022/07/04 05:41:25;;;;;;;4.13;2.20;;;19.20;99.90;;;;;;4946629;29;20235;-51
2022/07/04 05:43:54;;;;;;;3.17;2.00;;;19.40;99.90;;;;;;4949956;29;20308;-50
2022/07/04 05:46:26;;;;;;;5.00;2.03;;;19.50;99.90;;;;;;4947331;29;20250;-49
2022/07/04 05:48:55;;;;;;;2.93;2.00;;;19.60;99.90;;;;;;4946151;29;20244;-50
2022/07/04 05:51:24;;;;;;;2.77;2.20;;;19.80;99.90;;;;;;4947884;29;20619;-51
2022/07/04 05:53:52;;;;;;;3.23;2.03;;;20.00;99.90;;;;;;4950033;29;20221;-50
2022/07/04 05:56:20;;;;;;;3.53;1.77;;;20.10;99.90;;;;;;4944454;29;20231;-49
2022/07/04 05:58:48;;;;;;;6.40;2.20;;;20.20;99.90;;;;;;4942071;29;20221;-50
2022/07/04 06:01:17;;;;;;;3.93;2.03;;;20.30;99.90;;;;;;4943863;29;20265;-50
2022/07/04 06:03:45;;;;;;;3.07;1.70;;;20.30;99.90;;;;;;4946457;29;20236;-49
2022/07/04 06:06:16;;;;;;;4.17;1.90;;;20.40;99.90;;;;;;4943691;29;20238;-52
2022/07/04 06:08:44;;;;;;;3.00;1.70;;;20.50;99.90;;;;;;4935462;28;20239;-52
2022/07/04 06:11:14;;;;;;;3.03;1.63;;;20.60;99.90;;;;;;4936075;29;20231;-50
2022/07/04 06:13:42;;;;;;;4.33;2.53;;;20.90;99.90;;;;;;4938381;29;20291;-50
2022/07/04 06:16:10;;;;;;;3.33;1.80;;;20.90;99.90;;;;;;4935364;29;20607;-49
2022/07/04 06:18:38;;;;;;;3.50;1.67;;;21.00;99.90;;;;;;4938077;29;20243;-52
2022/07/04 06:21:07;;;;;;;4.43;1.70;;;21.10;99.90;;;;;;4939585;29;20580;-52
2022/07/04 06:23:37;;;;;;;4.37;1.90;;;21.20;99.90;;;;;;4937372;29;20643;-48
2022/07/04 06:26:05;;;;;;;3.23;1.60;;;21.30;99.90;;;;;;4936830;29;20239;-49
2022/07/04 06:28:33;;;;;;;5.20;1.70;;;21.40;99.90;;;;;;4937280;29;20665;-50
2022/07/04 06:31:17;;;;;;;5.10;1.70;;;21.40;99.90;;;;;;4935273;29;20309;-50
2022/07/04 06:36:31;;;;;;;4.50;1.90;;;21.90;99.90;;;;;;4937000;29;20234;-51
2022/07/04 06:39:01;;;;;;;3.10;1.40;;;22.00;99.90;;;;;;4936999;29;21466;-50
2022/07/04 06:41:29;;;;;;;2.83;1.50;;;22.20;99.90;;;;;;4936908;29;20721;-51
2022/07/04 06:43:57;;;;;;;1.83;1.23;;;22.30;99.90;;;;;;4938658;29;20292;-51
2022/07/04 06:46:27;;;;;;;3.83;1.73;;;22.50;99.90;;;;;;4936644;29;20315;-50
2022/07/04 06:48:55;;;;;;;3.67;1.40;;;22.70;99.90;;;;;;4937140;29;20666;-51
2022/07/04 06:51:23;;;;;;;2.93;1.70;;;22.60;99.90;;;;;;4936864;29;20236;-49
2022/07/04 06:53:52;;;;;;;3.77;1.40;;;22.60;99.90;;;;;;4936258;29;20637;-51
2022/07/04 06:56:21;;;;;;;2.93;1.33;;;22.60;99.90;;;;;;4934093;29;20247;-50
2022/07/04 06:58:49;;;;;;;2.87;1.30;;;22.80;99.90;;;;;;4936601;29;20223;-50
2022/07/04 07:01:18;;;;;;;3.03;1.20;;;22.90;99.90;;;;;;4930030;29;20236;-51
2022/07/04 07:03:46;;;;;;;4.97;1.30;;;23.10;99.90;;;;;;4935211;29;20291;-50
2022/07/04 07:06:14;;;;;;;2.33;1.13;;;23.20;99.90;;;;;;4937385;29;20223;-50
2022/07/04 07:08:43;;;;;;;4.07;1.53;;;23.30;99.90;;;;;;4937491;29;20239;-52
2022/07/04 07:11:13;;;;;;;1.97;1.00;;;23.50;99.90;;;;;;4935753;29;20286;-52
2022/07/04 07:13:46;;;;;;;2.80;1.20;;;23.50;99.90;;;;;;4937132;29;20231;-51
2022/07/04 07:16:15;;;;;;;2.53;1.47;;;23.50;99.90;;;;;;4934760;29;20284;-48
2022/07/04 07:18:44;;;;;;;2.63;1.30;;;23.50;99.90;;;;;;4939628;29;20242;-51
2022/07/04 07:21:13;;;;;;;3.90;1.00;;;23.50;99.90;;;;;;4938193;29;20243;-50
2022/07/04 07:23:41;;;;;;;2.07;0.83;;;23.40;99.90;;;;;;4939036;29;20333;-52
2022/07/04 07:26:11;;;;;;;4.47;1.10;;;23.50;99.90;;;;;;4937432;29;20239;-52
2022/07/04 07:28:40;;;;;;;3.00;1.10;;;23.50;99.90;;;;;;4938698;29;20281;-50
2022/07/04 07:31:09;;;;;;;3.83;1.20;;;23.50;99.90;;;;;;4935223;29;20231;-52
2022/07/04 07:33:38;;;;;;;3.07;1.10;;;23.60;99.90;;;;;;4934978;29;20227;-52
2022/07/04 07:36:06;;;;;;;3.67;1.17;;;23.50;99.90;;;;;;4934948;29;20271;-52
2022/07/04 07:38:34;;;;;;;3.20;1.10;;;23.80;99.90;;;;;;4930757;29;20291;-50
2022/07/04 07:41:03;;;;;;;3.30;1.00;;;24.20;99.90;;;;;;4929045;29;20242;-52
2022/07/04 07:43:31;;;;;;;3.27;0.87;;;24.20;99.90;;;;;;4917816;29;20707;-53
2022/07/04 07:45:59;;;;;;;2.50;1.00;;;24.50;99.90;;;;;;4918449;29;20575;-52
2022/07/04 07:48:29;;;;;;;2.37;0.93;;;25.00;99.90;;;;;;4917858;29;20980;-50
2022/07/04 07:50:57;;;;;;;4.50;1.00;;;25.10;99.90;;;;;;4921922;29;20257;-51
2022/07/04 07:53:25;;;;;;;4.03;1.07;;;25.20;99.90;;;;;;4918034;29;20360;-49
2022/07/04 07:55:53;;;;;;;1.87;1.13;;;25.10;99.90;;;;;;4917801;29;20890;-51
2022/07/04 07:58:21;;;;;;;2.70;1.00;;;25.00;99.90;;;;;;4922911;29;20585;-49
2022/07/04 08:00:49;;;;;;;2.23;0.80;;;24.90;99.90;;;;;;4922182;29;20666;-50
2022/07/04 08:06:10;;;;;;;2.37;0.80;;;24.70;99.90;;;;;;4919600;29;20227;-52
2022/07/04 08:08:38;;;;;;;2.37;0.90;;;24.60;99.90;;;;;;4922938;29;20651;-50
2022/07/04 08:11:06;;;;;;;3.23;0.90;;;25.00;99.90;;;;;;4924571;29;20233;-52
2022/07/04 08:13:34;;;;;;;2.07;0.90;;;25.60;99.90;;;;;;4923340;29;20219;-52
2022/07/04 08:16:03;;;;;;;2.73;0.90;;;25.60;99.90;;;;;;4921582;29;20251;-51
2022/07/04 08:18:31;;;;;;;2.00;0.70;;;25.70;99.90;;;;;;4920706;29;20294;-51
2022/07/04 08:21:00;;;;;;;3.20;0.90;;;25.90;99.90;;;;;;4922570;29;20267;-51
2022/07/04 08:23:34;;;;;;;3.10;0.90;;;25.90;99.90;;;;;;4924921;29;20304;-51
2022/07/04 08:26:03;;;;;;;1.70;0.77;;;25.80;99.90;;;;;;4923409;29;21566;-52
2022/07/04 08:28:31;;;;;;;2.77;0.90;;;25.70;99.90;;;;;;4925443;29;20232;-51
2022/07/04 08:30:59;;;;;;;2.53;0.90;;;25.60;99.90;;;;;;4923317;29;20240;-52
2022/07/04 08:33:28;;;;;;;3.37;0.90;;;25.80;99.90;;;;;;4921117;29;20244;-52
2022/07/04 08:36:02;;;;;;;3.10;1.10;;;26.10;99.90;;;;;;4920192;29;20329;-52
2022/07/04 08:38:31;;;;;;;2.10;0.97;;;25.80;99.90;;;;;;4922762;29;20239;-50
2022/07/04 08:41:04;;;;;;;3.53;0.90;;;25.60;99.90;;;;;;4921751;29;20733;-51
2022/07/04 08:43:35;;;;;;;3.80;1.07;;;26.10;99.90;;;;;;4918546;29;20746;-52
2022/07/04 08:46:05;;;;;;;2.97;1.40;;;26.30;99.90;;;;;;4921934;29;20239;-54
2022/07/04 08:48:53;;;;;;;1.70;0.90;;;26.70;99.90;;;;;;4923133;29;20318;-51
2022/07/04 08:51:31;;;;;;;2.07;1.10;;;26.70;99.90;;;;;;4922806;29;20314;-52
2022/07/04 08:58:25;;;;;;;2.20;1.03;;;26.10;99.90;;;;;;4922367;29;20290;-51
2022/07/04 08:59:38;;;;;;;1.50;0.67;;;24.90;99.90;;;;;;4920495;29;20890;-51
2022/07/04 09:02:07;;;;;;;3.93;1.10;;;25.30;99.90;;;;;;4919771;29;20265;-52
2022/07/04 09:04:36;;;;;;;1.83;0.80;;;25.40;99.90;;;;;;4922532;29;20242;-51
2022/07/04 09:07:05;;;;;;;1.97;0.83;;;25.10;99.90;;;;;;4917156;29;20283;-52
2022/07/04 09:09:34;;;;;;;2.00;0.90;;;24.70;99.90;;;;;;4918879;29;20244;-50
2022/07/04 09:12:04;;;;;;;2.43;0.93;;;24.30;99.90;;;;;;4922526;29;20242;-50
2022/07/04 09:14:34;;;;;;;1.67;0.60;;;24.60;99.90;;;;;;4920089;29;20241;-52
2022/07/04 09:17:02;;;;;;;3.30;0.77;;;25.40;99.90;;;;;;4923662;29;20645;-52
2022/07/04 09:19:32;;;;;;;3.60;0.80;;;26.20;99.90;;;;;;4921294;29;20311;-52
2022/07/04 09:22:04;;;;;;;1.67;0.70;;;26.30;99.90;;;;;;4924530;29;20290;-52
2022/07/04 09:24:46;;;;;;;1.60;0.67;;;25.90;99.90;;;;;;4923853;29;20239;-53
2022/07/04 09:27:30;;;;;;;1.17;0.60;;;26.20;99.90;;;;;;4916372;29;20310;-52
2022/07/04 09:30:06;;;;;;;2.27;0.60;;;26.20;99.90;;;;;;4921057;29;20242;-52
2022/07/04 09:32:36;;;;;;;1.40;0.73;;;26.30;99.90;;;;;;4913266;29;20234;-52
2022/07/04 09:35:06;;;;;;;1.17;0.50;;;26.80;99.90;;;;;;4922158;29;20299;-53
2022/07/04 09:37:39;;;;;;;1.80;0.50;;;27.10;99.90;;;;;;4922174;29;20230;-52
2022/07/04 09:40:10;;;;;;;1.57;0.60;;;26.90;99.90;;;;;;4924940;29;20269;-52
2022/07/04 09:42:42;;;;;;;1.90;0.70;;;27.50;99.90;;;;;;4920190;29;20679;-51
2022/07/04 09:45:12;;;;;;;1.67;0.60;;;27.70;99.90;;;;;;4919384;29;20294;-52
2022/07/04 09:47:41;;;;;;;1.57;0.70;;;27.20;99.90;;;;;;4917902;29;20358;-52
2022/07/04 09:50:11;;;;;;;1.10;0.70;;;27.20;99.90;;;;;;4917400;29;20800;-52
2022/07/04 09:52:50;;;;;;;2.03;0.50;;;27.40;99.90;;;;;;4916822;29;20241;-54
2022/07/04 09:55:27;;;;;;;2.10;0.73;;;27.00;99.90;;;;;;4917492;29;20236;-51
2022/07/04 09:57:58;;;;;;;2.53;0.80;;;26.50;99.90;;;;;;4919604;29;20330;-52
2022/07/04 10:00:28;;;;;;;1.10;0.70;;;26.60;99.90;;;;;;4919039;29;20654;-51
2022/07/04 10:02:57;;;;;;;4.23;0.80;;;27.20;99.90;;;;;;4919391;29;20256;-51
2022/07/04 10:05:28;;;;;;;3.00;0.67;;;27.10;99.90;;;;;;4917642;29;20748;-51
2022/07/04 10:07:58;;;;;;;4.07;0.80;;;26.80;99.90;;;;;;4918479;29;20231;-52
2022/07/04 10:10:32;;;;;;;2.23;0.73;;;27.30;99.90;;;;;;4917992;29;20239;-53
2022/07/04 10:13:04;;;;;;;2.47;0.80;;;28.00;99.90;;;;;;4898698;29;20239;-54
2022/07/04 10:15:33;;;;;;;1.53;0.70;;;27.60;99.90;;;;;;4917442;29;20572;-51
2022/07/04 10:18:01;;;;;;;2.27;0.70;;;26.90;99.90;;;;;;4918763;29;20952;-51
2022/07/04 10:20:30;;;;;;;1.87;0.60;;;26.30;99.90;;;;;;4918562;29;20322;-51
2022/07/04 10:22:59;;;;;;;1.27;0.50;;;25.60;99.90;;;;;;4917956;29;20236;-53
2022/07/04 10:25:27;;;;;;;3.27;0.80;;;25.20;99.90;;;;;;4915957;29;20231;-50
2022/07/04 10:27:56;;;;;;;4.40;0.90;;;24.90;99.90;;;;;;4919069;29;21036;-52
2022/07/04 10:30:28;;;;;;;1.20;0.77;;;24.80;99.90;;;;;;4916388;29;20327;-52
2022/07/04 10:33:00;;;;;;;2.07;0.83;;;24.70;99.90;;;;;;4913032;29;20242;-51
2022/07/04 10:35:49;;;;;;;2.53;0.80;;;24.70;99.90;;;;;;4910196;29;20234;-51
2022/07/04 10:38:18;;;;;;;2.73;1.10;;;24.80;99.90;;;;;;4912221;29;20235;-51
2022/07/04 10:40:48;;;;;;;2.27;0.70;;;24.60;99.90;;;;;;4916940;29;20234;-52
2022/07/04 10:43:59;;;;;;;4.30;1.03;;;24.60;99.90;;;;;;4930047;29;20239;-52
2022/07/04 10:46:37;;;;;;;2.47;0.97;;;24.50;99.90;;;;;;4859725;29;20315;-50
2022/07/04 10:49:08;;;;;;;1.83;0.80;;;24.60;99.90;;;;;;4929131;29;20328;-50
2022/07/04 10:51:47;;;;;;;2.13;0.70;;;24.80;99.90;;;;;;4937536;29;20262;-51
2022/07/04 10:54:17;;;;;;;1.90;0.80;;;24.60;99.90;;;;;;4938638;29;20225;-51
2022/07/04 10:56:51;;;;;;;1.83;0.70;;;24.40;99.90;;;;;;4934459;28;20237;-51
2022/07/04 10:59:25;;;;;;;2.87;1.87;;;24.20;99.90;;;;;;4934122;29;20236;-51
2022/07/04 11:02:25;;;;;;;2.03;1.63;;;24.00;99.90;;;;;;4936781;29;20744;-49
2022/07/04 11:05:01;;;;;;;2.60;1.30;;;24.60;99.90;;;;;;4936873;29;20781;-61
2022/07/04 11:07:59;;;;;;;4.07;1.10;;;25.60;99.90;;;;;;4936093;29;20232;-60
2022/07/04 11:10:30;;;;;;;2.90;0.80;;;26.70;99.90;;;;;;4938486;29;20251;-61
2022/07/04 11:13:17;;;;;;;2.57;1.10;;;26.90;99.90;;;;;;4936480;29;20786;-61
2022/07/04 11:16:05;;;;;;;4.07;1.00;;;27.80;99.90;;;;;;4930921;29;20238;-55
2022/07/04 11:18:45;;;;;;;4.00;1.00;;;28.80;99.90;;;;;;4928480;29;20252;-61
2022/07/04 11:21:17;;;;;;;1.90;0.90;;;28.40;99.90;;;;;;4936393;29;20239;-60
2022/07/04 11:23:52;;;;;;;3.20;0.93;;;27.80;99.90;;;;;;4935643;29;20285;-61
2022/07/04 11:26:22;;;;;;;2.67;0.67;;;27.10;99.90;;;;;;4937046;29;20248;-55
2022/07/04 11:28:51;;;;;;;2.40;1.10;;;26.50;99.90;;;;;;4935869;29;20735;-59
2022/07/04 11:31:19;;;;;;;1.73;0.70;;;26.20;99.90;;;;;;4936286;28;20336;-61
2022/07/04 11:33:54;;;;;;;4.07;1.00;;;25.90;99.90;;;;;;4939554;29;20229;-61
2022/07/04 11:36:22;;;;;;;1.07;0.80;;;25.70;99.90;;;;;;4940899;29;20706;-61
2022/07/04 11:38:56;;;;;;;2.33;1.07;;;25.40;99.90;;;;;;4939138;29;20257;-60
2022/07/04 11:47:10;;;;;;;2.53;0.87;;;25.00;99.90;;;;;;4934695;29;20707;-61
2022/07/04 11:49:46;;;;;;;2.33;0.83;;;25.30;99.90;;;;;;4932775;29;20298;-59
2022/07/04 11:52:16;;;;;;;2.37;1.00;;;25.50;99.90;;;;;;4938805;29;20237;-60
2022/07/04 11:55:04;;;;;;;3.50;1.17;;;25.40;99.90;;;;;;4940977;29;20293;-59
2022/07/04 11:57:36;;;;;;;1.67;0.90;;;25.30;99.90;;;;;;4939252;29;20230;-59
2022/07/04 12:00:06;;;;;;;2.23;0.90;;;25.60;99.90;;;;;;4939281;29;20267;-54
2022/07/04 12:02:41;;;;;;;2.63;0.90;;;26.10;99.90;;;;;;4937790;29;21107;-60
2022/07/04 12:05:12;;;;;;;1.93;0.90;;;26.80;99.90;;;;;;4938637;29;20255;-59
2022/07/04 12:07:41;;;;;;;3.20;1.00;;;26.90;99.90;;;;;;4937919;29;20322;-56
2022/07/04 12:10:11;;;;;;;2.60;0.80;;;26.90;99.90;;;;;;4940717;29;20720;-61
2022/07/04 12:12:53;;;;;;;3.03;0.80;;;27.10;99.90;;;;;;4934275;29;20252;-58
2022/07/04 12:15:22;;;;;;;2.33;1.00;;;27.20;99.90;;;;;;4934873;29;20314;-59
2022/07/04 12:17:53;;;;;;;1.83;0.97;;;27.20;99.90;;;;;;4940536;29;20289;-61
2022/07/04 12:20:24;;;;;;;1.83;0.80;;;27.30;99.90;;;;;;4939292;29;20234;-58
2022/07/04 12:22:54;;;;;;;4.10;0.93;;;27.30;99.90;;;;;;4941270;29;20231;-59
2022/07/04 12:25:31;;;;;;;2.30;0.83;;;26.60;99.90;;;;;;4941246;29;20313;-58
2022/07/04 12:28:02;;;;;;;3.07;0.70;;;26.20;99.90;;;;;;4941174;29;20332;-56
2022/07/04 12:30:32;;;;;;;4.07;1.00;;;25.90;99.90;;;;;;4939795;29;20262;-59
2022/07/04 12:33:01;;;;;;;2.20;0.80;;;25.70;99.90;;;;;;4940868;29;20321;-59
2022/07/04 12:35:44;;;;;;;1.90;0.70;;;25.50;99.90;;;;;;4934948;29;20724;-57
2022/07/04 12:38:14;;;;;;;2.50;0.90;;;25.50;99.90;;;;;;4939311;29;20242;-58
2022/07/04 12:40:54;;;;;;;1.63;0.80;;;25.80;99.90;;;;;;4942321;29;20241;-59
2022/07/04 12:43:23;;;;;;;2.70;1.10;;;25.80;99.90;;;;;;4939775;28;20255;-62
2022/07/04 12:45:53;;;;;;;2.23;0.83;;;25.80;99.90;;;;;;4938680;29;20321;-56
2022/07/04 12:48:25;;;;;;;2.40;0.90;;;25.90;99.90;;;;;;4942229;29;20330;-60
2022/07/04 12:50:56;;;;;;;1.27;0.70;;;26.00;99.90;;;;;;4938885;29;20285;-61
2022/07/04 12:53:24;;;;;;;3.03;1.10;;;26.00;99.90;;;;;;4942529;29;20242;-60
2022/07/04 12:55:53;;;;;;;2.63;0.80;;;25.60;99.90;;;;;;4940766;29;20249;-60
2022/07/04 12:58:21;;;;;;;3.30;1.47;;;25.10;99.90;;;;;;4940523;29;20583;-56
2022/07/04 13:00:49;;;;;;;3.30;0.90;;;24.60;99.90;;;;;;4938907;29;20241;-61
2022/07/04 13:03:18;;;;;;;2.83;1.00;;;24.60;99.90;;;;;;4939997;29;20242;-59
2022/07/04 13:05:47;;;;;;;2.57;0.87;;;24.50;99.90;;;;;;4939014;29;20244;-60
2022/07/04 13:08:17;;;;;;;4.60;1.10;;;24.40;99.90;;;;;;4936041;28;20235;-56
2022/07/04 13:10:45;;;;;;;2.27;1.00;;;24.50;99.90;;;;;;4939551;29;20599;-60
2022/07/04 13:13:13;;;;;;;3.77;1.13;;;24.80;99.90;;;;;;4939649;29;20317;-59
2022/07/04 13:15:41;;;;;;;3.33;0.97;;;24.80;99.90;;;;;;4936862;29;20233;-56
2022/07/04 13:18:10;;;;;;;1.20;0.70;;;24.90;99.90;;;;;;4936733;29;20243;-59
2022/07/04 13:20:38;;;;;;;1.93;0.90;;;24.80;99.90;;;;;;4938703;29;20249;-61
2022/07/04 13:23:06;;;;;;;3.20;1.27;;;24.70;99.90;;;;;;4939093;29;20304;-58